Time;durP1;ratioP1;P1;durP2;ratioP2;P2;SDS_P1;SDS_P2;PMS_P1;PMS_P2;Temp;Humidity;BMP_temperature;BMP_pressure;BME280_temperature;BME280_humidity;BME280_pressure;Samples;Min_cycle;Max_cycle;Signal;HPM_P1;HPM_P2
2023/10/24 00:00:42;;;;;;;;;;;19.20;65.00;;;;;;7394944;19;1555;-62
2023/10/24 00:03:08;;;;;;;;;;;19.20;65.20;;;;;;7397088;19;1734;-61
2023/10/24 00:05:33;;;;;;;;;;;19.20;64.90;;;;;;7390565;19;2631;-62
2023/10/24 00:07:59;;;;;;;;;;;19.20;65.00;;;;;;7396202;19;3002;-61
2023/10/24 00:10:24;;;;;;;;;;;19.20;65.00;;;;;;7393273;19;1696;-61
2023/10/24 00:12:50;;;;;;;;;;;19.20;65.20;;;;;;7400645;19;3062;-62
2023/10/24 00:15:15;;;;;;;;;;;19.10;65.00;;;;;;7400993;19;1758;-62
2023/10/24 00:17:41;;;;;;;;;;;19.20;65.30;;;;;;7402803;19;1525;-62
2023/10/24 00:20:07;;;;;;;;;;;19.20;65.00;;;;;;7399306;19;2706;-62
2023/10/24 00:22:32;;;;;;;;;;;19.10;65.00;;;;;;7404623;19;1802;-62
2023/10/24 00:24:57;;;;;;;;;;;19.10;65.00;;;;;;7402456;19;1719;-62
2023/10/24 00:27:23;;;;;;;;;;;19.10;65.00;;;;;;7398882;19;2666;-61
2023/10/24 00:29:48;;;;;;;;;;;19.10;65.00;;;;;;7397717;19;1858;-61
2023/10/24 00:32:14;;;;;;;;;;;19.10;65.10;;;;;;7399287;19;1766;-62
2023/10/24 00:34:39;;;;;;;;;;;19.10;65.10;;;;;;7397511;19;2570;-62
2023/10/24 00:37:05;;;;;;;;;;;19.00;65.00;;;;;;7401085;19;3115;-62
2023/10/24 00:39:30;;;;;;;;;;;19.10;65.30;;;;;;7402307;19;1750;-61
2023/10/24 00:41:56;;;;;;;;;;;19.10;65.10;;;;;;7402035;19;1513;-62
2023/10/24 00:44:21;;;;;;;;;;;19.10;65.20;;;;;;7396481;19;3661;-62
2023/10/24 00:46:47;;;;;;;;;;;19.10;65.10;;;;;;7398050;19;2021;-61
2023/10/24 00:49:12;;;;;;;;;;;19.10;65.20;;;;;;7396185;19;3626;-62
2023/10/24 00:51:37;;;;;;;;;;;19.10;65.20;;;;;;7398903;19;1655;-61
2023/10/24 00:54:03;;;;;;;;;;;19.00;65.20;;;;;;7402285;19;1783;-61
2023/10/24 00:56:29;;;;;;;;;;;19.00;65.10;;;;;;7395856;19;2723;-61
2023/10/24 00:58:54;;;;;;;;;;;19.00;65.10;;;;;;7399237;19;1671;-63
2023/10/24 01:01:20;;;;;;;;;;;19.00;65.10;;;;;;7395799;19;2277;-61
2023/10/24 01:03:46;;;;;;;;;;;19.00;65.30;;;;;;7395148;19;3420;-62
2023/10/24 01:06:11;;;;;;;;;;;19.00;65.30;;;;;;7397563;19;1762;-61
2023/10/24 01:08:36;;;;;;;;;;;19.00;65.30;;;;;;7395324;19;1849;-61
2023/10/24 01:11:02;;;;;;;;;;;19.00;65.20;;;;;;7394179;19;3554;-61
2023/10/24 01:13:27;;;;;;;;;;;19.00;65.30;;;;;;7398541;19;2783;-61
2023/10/24 01:15:53;;;;;;;;;;;19.00;65.30;;;;;;7396015;19;4680;-61
2023/10/24 01:18:18;;;;;;;;;;;19.00;65.40;;;;;;7396096;19;3054;-62
2023/10/24 01:20:44;;;;;;;;;;;19.00;65.10;;;;;;7397011;19;2804;-62
2023/10/24 01:23:09;;;;;;;;;;;19.10;65.30;;;;;;7400239;19;1591;-61
2023/10/24 01:25:38;;;;;;;;;;;19.10;65.20;;;;;;7401157;19;1791;-62
2023/10/24 01:28:07;;;;;;;;;;;19.10;65.00;;;;;;7396741;19;2288;-62
2023/10/24 01:30:33;;;;;;;;;;;19.10;64.80;;;;;;7400797;19;1782;-62
2023/10/24 01:32:58;;;;;;;;;;;19.10;64.80;;;;;;7394547;19;3584;-62
2023/10/24 01:35:24;;;;;;;;;;;19.20;64.80;;;;;;7391621;19;3169;-62
2023/10/24 01:37:49;;;;;;;;;;;19.30;64.60;;;;;;7395764;19;1650;-63
2023/10/24 01:40:15;;;;;;;;;;;19.30;64.10;;;;;;7399701;19;1729;-62
2023/10/24 01:42:40;;;;;;;;;;;19.50;63.80;;;;;;7394371;19;2728;-62
2023/10/24 01:45:06;;;;;;;;;;;19.60;63.70;;;;;;7392437;19;3386;-62
2023/10/24 01:47:31;;;;;;;;;;;19.60;63.50;;;;;;7399489;19;2776;-62
2023/10/24 01:49:57;;;;;;;;;;;19.60;63.30;;;;;;7396073;19;1852;-62
2023/10/24 01:52:22;;;;;;;;;;;19.70;63.20;;;;;;7398869;19;1581;-62
2023/10/24 01:54:47;;;;;;;;;;;19.70;63.00;;;;;;7395503;19;4707;-62
2023/10/24 01:57:14;;;;;;;;;;;19.70;63.00;;;;;;7393666;19;3403;-62
2023/10/24 01:59:39;;;;;;;;;;;19.70;63.10;;;;;;7396294;19;1619;-62
2023/10/24 02:02:05;;;;;;;;;;;19.60;63.00;;;;;;7397614;19;2091;-62
2023/10/24 02:04:30;;;;;;;;;;;19.50;63.40;;;;;;7398116;19;2113;-61
2023/10/24 02:06:55;;;;;;;;;;;19.40;63.40;;;;;;7394738;19;1820;-62
2023/10/24 02:09:21;;;;;;;;;;;19.50;63.70;;;;;;7393587;19;3306;-62
2023/10/24 02:11:46;;;;;;;;;;;19.50;63.80;;;;;;7396003;19;2050;-62
2023/10/24 02:14:12;;;;;;;;;;;19.40;63.80;;;;;;7397322;19;2049;-62
2023/10/24 02:16:37;;;;;;;;;;;19.40;63.90;;;;;;7397228;19;1579;-62
2023/10/24 02:19:03;;;;;;;;;;;19.40;63.90;;;;;;7396648;19;1673;-61
2023/10/24 02:21:28;;;;;;;;;;;19.30;64.00;;;;;;7390007;19;2182;-62
2023/10/24 02:23:53;;;;;;;;;;;19.30;64.10;;;;;;7390260;19;3025;-63
2023/10/24 02:26:19;;;;;;;;;;;19.30;64.20;;;;;;7393349;19;2330;-61
2023/10/24 02:28:44;;;;;;;;;;;19.30;64.10;;;;;;7390387;19;3425;-62
2023/10/24 02:31:10;;;;;;;;;;;19.30;64.00;;;;;;7396556;19;1884;-61
2023/10/24 02:33:36;;;;;;;;;;;19.30;64.20;;;;;;7395170;19;1657;-62
2023/10/24 02:36:05;;;;;;;;;;;19.20;64.20;;;;;;7393251;19;1880;-61
2023/10/24 02:38:30;;;;;;;;;;;19.30;64.30;;;;;;7390887;19;3348;-62
2023/10/24 02:40:56;;;;;;;;;;;19.20;64.30;;;;;;7394307;19;1594;-63
2023/10/24 02:43:21;;;;;;;;;;;19.20;64.50;;;;;;7392891;19;3394;-62
2023/10/24 02:45:47;;;;;;;;;;;19.10;64.40;;;;;;7393308;19;2193;-62
2023/10/24 02:48:12;;;;;;;;;;;19.10;64.60;;;;;;7395804;19;1857;-61
2023/10/24 02:50:38;;;;;;;;;;;19.10;64.60;;;;;;7390607;19;3368;-62
2023/10/24 02:53:06;;;;;;;;;;;19.10;64.80;;;;;;7398079;19;1636;-61
2023/10/24 02:55:35;;;;;;;;;;;19.10;64.90;;;;;;7396456;19;1548;-61
2023/10/24 02:58:00;;;;;;;;;;;19.10;64.80;;;;;;7396982;19;2020;-62
2023/10/24 03:00:26;;;;;;;;;;;19.10;64.80;;;;;;7393701;19;3503;-62
2023/10/24 03:02:52;;;;;;;;;;;19.10;64.80;;;;;;7397077;19;1976;-62
2023/10/24 03:05:18;;;;;;;;;;;19.10;64.80;;;;;;7390660;19;4438;-61
2023/10/24 03:07:43;;;;;;;;;;;19.10;64.70;;;;;;7395997;19;1989;-61
2023/10/24 03:10:09;;;;;;;;;;;19.10;64.70;;;;;;7393582;19;3316;-62
2023/10/24 03:12:34;;;;;;;;;;;19.10;65.50;;;;;;7393742;19;3493;-61
2023/10/24 03:14:59;;;;;;;;;;;19.10;64.60;;;;;;7393893;19;2868;-62
2023/10/24 03:17:26;;;;;;;;;;;19.20;64.70;;;;;;7394163;19;3071;-62
2023/10/24 03:19:52;;;;;;;;;;;19.20;64.50;;;;;;7395403;19;2071;-62
2023/10/24 03:22:17;;;;;;;;;;;19.30;64.30;;;;;;7394274;19;2272;-62
2023/10/24 03:24:43;;;;;;;;;;;19.20;64.20;;;;;;7394241;19;1656;-62
2023/10/24 03:27:12;;;;;;;;;;;19.30;64.20;;;;;;7394952;19;3048;-61
2023/10/24 03:29:40;;;;;;;;;;;19.30;64.20;;;;;;7393078;19;2448;-62
2023/10/24 03:32:06;;;;;;;;;;;19.30;64.20;;;;;;7394164;19;1752;-62
2023/10/24 03:34:31;;;;;;;;;;;19.20;64.20;;;;;;7393441;19;3208;-62
2023/10/24 03:36:57;;;;;;;;;;;19.20;64.20;;;;;;7392761;19;1695;-62
2023/10/24 03:39:22;;;;;;;;;;;19.20;64.30;;;;;;7394343;19;1674;-61
2023/10/24 03:41:48;;;;;;;;;;;19.30;64.40;;;;;;7393782;19;3623;-61
2023/10/24 03:44:13;;;;;;;;;;;19.30;64.20;;;;;;7385437;19;3487;-62
2023/10/24 03:46:39;;;;;;;;;;;19.20;64.20;;;;;;7390091;19;2450;-62
2023/10/24 03:49:04;;;;;;;;;;;19.20;64.20;;;;;;7391399;19;4054;-62
2023/10/24 03:51:30;;;;;;;;;;;19.20;64.30;;;;;;7400274;19;2614;-62
2023/10/24 03:53:55;;;;;;;;;;;19.20;64.30;;;;;;7401168;19;2155;-61
2023/10/24 03:56:20;;;;;;;;;;;19.20;64.30;;;;;;7401904;19;3642;-61
2023/10/24 03:58:46;;;;;;;;;;;19.20;64.30;;;;;;7401469;19;1790;-61
2023/10/24 04:01:11;;;;;;;;;;;19.20;64.40;;;;;;7395257;19;2805;-62
2023/10/24 04:03:37;;;;;;;;;;;19.20;64.40;;;;;;7399784;19;3320;-62
2023/10/24 04:06:02;;;;;;;;;;;19.20;64.40;;;;;;7399084;19;1937;-61
2023/10/24 04:08:28;;;;;;;;;;;19.20;64.30;;;;;;7399195;19;2283;-61
2023/10/24 04:10:53;;;;;;;;;;;19.20;64.30;;;;;;7396994;19;3240;-62
2023/10/24 04:13:18;;;;;;;;;;;19.20;64.30;;;;;;7397441;19;3758;-62
2023/10/24 04:15:44;;;;;;;;;;;19.30;64.20;;;;;;7401596;19;1786;-62
2023/10/24 04:18:10;;;;;;;;;;;19.30;64.30;;;;;;7398456;19;2672;-62
2023/10/24 04:20:39;;;;;;;;;;;19.30;64.00;;;;;;7393976;19;2401;-62
2023/10/24 04:23:05;;;;;;;;;;;19.20;64.10;;;;;;7397620;19;1939;-62
2023/10/24 04:25:30;;;;;;;;;;;19.20;64.10;;;;;;7395256;19;3664;-61
2023/10/24 04:27:57;;;;;;;;;;;19.20;64.20;;;;;;7400439;19;1597;-62
2023/10/24 04:30:22;;;;;;;;;;;19.20;64.30;;;;;;7397000;19;1845;-62
2023/10/24 04:32:48;;;;;;;;;;;19.20;64.40;;;;;;7398648;19;3811;-62
2023/10/24 04:35:13;;;;;;;;;;;19.30;64.30;;;;;;7399158;19;2462;-62
2023/10/24 04:37:39;;;;;;;;;;;19.30;64.30;;;;;;7398564;19;2227;-62
2023/10/24 04:40:07;;;;;;;;;;;19.20;64.20;;;;;;7394584;19;3575;-61
2023/10/24 04:42:32;;;;;;;;;;;19.30;65.00;;;;;;7399205;19;1573;-61
2023/10/24 04:44:58;;;;;;;;;;;19.30;64.10;;;;;;7400060;19;1800;-62
2023/10/24 04:47:24;;;;;;;;;;;19.30;64.20;;;;;;7396827;19;3327;-62
2023/10/24 04:49:50;;;;;;;;;;;19.30;64.30;;;;;;7396158;19;2447;-62
2023/10/24 04:52:15;;;;;;;;;;;19.30;64.20;;;;;;7394992;19;1856;-62
2023/10/24 04:54:40;;;;;;;;;;;19.20;64.30;;;;;;7395437;19;3248;-62
2023/10/24 04:57:06;;;;;;;;;;;19.20;64.40;;;;;;7399618;19;2764;-62
2023/10/24 04:59:33;;;;;;;;;;;19.10;64.50;;;;;;7398891;19;1752;-61
2023/10/24 05:01:59;;;;;;;;;;;19.20;64.60;;;;;;7396213;19;3670;-62
2023/10/24 05:04:24;;;;;;;;;;;19.10;64.70;;;;;;7396930;19;2284;-61
2023/10/24 05:06:50;;;;;;;;;;;19.10;64.90;;;;;;7395945;19;3232;-62
2023/10/24 05:09:16;;;;;;;;;;;19.10;64.80;;;;;;7397740;19;2575;-62
2023/10/24 05:11:41;;;;;;;;;;;19.00;64.80;;;;;;7401069;19;1557;-61
2023/10/24 05:14:07;;;;;;;;;;;19.00;65.10;;;;;;7399424;19;2058;-62
2023/10/24 05:16:32;;;;;;;;;;;19.00;65.20;;;;;;7394150;19;4153;-62
2023/10/24 05:18:58;;;;;;;;;;;19.00;65.10;;;;;;7398030;19;3231;-61
2023/10/24 05:21:23;;;;;;;;;;;19.10;64.80;;;;;;7398721;19;1626;-62
2023/10/24 05:23:49;;;;;;;;;;;19.20;64.50;;;;;;7394589;19;2895;-62
2023/10/24 05:26:14;;;;;;;;;;;19.40;64.00;;;;;;7396216;19;3314;-62
2023/10/24 05:28:39;;;;;;;;;;;19.50;63.50;;;;;;7397780;19;2399;-62
2023/10/24 05:31:07;;;;;;;;;;;19.60;63.30;;;;;;7401481;19;2009;-61
2023/10/24 05:33:34;;;;;;;;;;;19.60;63.00;;;;;;7396138;19;3797;-62
2023/10/24 05:35:59;;;;;;;;;;;19.60;63.10;;;;;;7399240;19;1753;-62
2023/10/24 05:38:24;;;;;;;;;;;19.60;63.00;;;;;;7396926;19;3486;-61
2023/10/24 05:40:50;;;;;;;;;;;19.70;63.00;;;;;;7399749;19;3040;-61
2023/10/24 05:43:15;;;;;;;;;;;19.70;62.60;;;;;;7400634;19;2070;-63
2023/10/24 05:45:41;;;;;;;;;;;19.70;62.70;;;;;;7391836;19;4153;-62
2023/10/24 05:48:06;;;;;;;;;;;19.80;63.40;;;;;;7398230;19;2878;-62
2023/10/24 05:50:33;;;;;;;;;;;19.90;62.40;;;;;;7397023;19;1857;-61
2023/10/24 05:52:59;;;;;;;;;;;19.90;62.20;;;;;;7398147;19;1741;-61
2023/10/24 05:55:24;;;;;;;;;;;19.90;62.10;;;;;;7395486;19;3809;-62
2023/10/24 05:57:50;;;;;;;;;;;19.90;62.20;;;;;;7398261;19;1717;-62
2023/10/24 06:00:15;;;;;;;;;;;19.90;62.30;;;;;;7398852;19;1726;-63
2023/10/24 06:02:41;;;;;;;;;;;20.00;62.20;;;;;;7393038;19;3271;-62
2023/10/24 06:05:06;;;;;;;;;;;20.00;62.00;;;;;;7396039;19;2880;-63
2023/10/24 06:07:32;;;;;;;;;;;20.00;61.90;;;;;;7394907;19;2972;-63
2023/10/24 06:09:57;;;;;;;;;;;20.00;61.90;;;;;;7395486;19;2564;-63
2023/10/24 06:12:22;;;;;;;;;;;20.00;61.80;;;;;;7397881;19;3517;-63
2023/10/24 06:14:48;;;;;;;;;;;20.00;61.70;;;;;;7399374;19;2814;-62
2023/10/24 06:17:17;;;;;;;;;;;20.10;61.70;;;;;;7390205;19;3752;-63
2023/10/24 06:19:43;;;;;;;;;;;20.00;61.70;;;;;;7395637;19;1632;-62
2023/10/24 06:22:08;;;;;;;;;;;20.00;61.80;;;;;;7395291;19;1716;-64
2023/10/24 06:24:34;;;;;;;;;;;20.00;61.80;;;;;;7394481;19;3585;-63
2023/10/24 06:27:00;;;;;;;;;;;20.00;61.90;;;;;;7391775;19;4009;-63
2023/10/24 06:29:25;;;;;;;;;;;19.90;61.90;;;;;;7390434;19;3167;-63
2023/10/24 06:31:51;;;;;;;;;;;20.00;61.90;;;;;;7398696;19;1716;-63
2023/10/24 06:34:16;;;;;;;;;;;20.00;61.80;;;;;;7400747;19;1482;-63
2023/10/24 06:36:41;;;;;;;;;;;20.10;61.60;;;;;;7395168;19;2460;-63
2023/10/24 06:39:07;;;;;;;;;;;20.20;61.60;;;;;;7398149;19;2052;-62
2023/10/24 06:41:33;;;;;;;;;;;20.10;61.50;;;;;;7395869;19;4206;-62
2023/10/24 06:43:59;;;;;;;;;;;20.10;61.60;;;;;;7397938;19;1728;-62
2023/10/24 06:46:24;;;;;;;;;;;20.10;61.80;;;;;;7382410;19;3532;-62
2023/10/24 06:48:51;;;;;;;;;;;20.00;61.70;;;;;;7389620;19;3739;-62
2023/10/24 06:51:17;;;;;;;;;;;20.20;61.70;;;;;;7386862;19;3997;-62
2023/10/24 06:53:42;;;;;;;;;;;20.90;60.30;;;;;;7390355;19;4199;-63
2023/10/24 06:56:07;;;;;;;;;;;21.50;59.00;;;;;;7395033;19;3745;-62
2023/10/24 06:58:33;;;;;;;;;;;22.00;57.70;;;;;;7389146;19;6185;-63
2023/10/24 07:00:58;;;;;;;;;;;22.30;56.90;;;;;;7388203;19;4208;-63
2023/10/24 07:03:24;;;;;;;;;;;22.50;56.50;;;;;;7390121;19;4133;-62
2023/10/24 07:05:51;;;;;;;;;;;22.50;56.20;;;;;;7391116;19;3539;-62
2023/10/24 07:08:17;;;;;;;;;;;22.40;56.30;;;;;;7394949;19;1918;-62
2023/10/24 07:10:42;;;;;;;;;;;22.50;56.40;;;;;;7396221;19;1656;-63
2023/10/24 07:13:07;;;;;;;;;;;22.50;56.20;;;;;;7390413;19;3470;-62
2023/10/24 07:15:33;;;;;;;;;;;22.60;55.80;;;;;;7396503;19;2363;-62
2023/10/24 07:17:58;;;;;;;;;;;22.80;55.70;;;;;;7392323;19;3325;-62
2023/10/24 07:20:24;;;;;;;;;;;22.80;55.20;;;;;;7391448;19;4431;-62
2023/10/24 07:22:49;;;;;;;;;;;23.00;55.10;;;;;;7396015;19;2821;-62
2023/10/24 07:25:15;;;;;;;;;;;23.10;55.00;;;;;;7391165;19;3513;-62
2023/10/24 07:27:40;;;;;;;;;;;23.00;55.00;;;;;;7393840;19;3800;-62
2023/10/24 07:30:09;;;;;;;;;;;23.00;55.20;;;;;;7391521;19;2047;-62
2023/10/24 07:32:34;;;;;;;;;;;22.90;55.40;;;;;;7389468;19;4436;-63
2023/10/24 07:35:00;;;;;;;;;;;22.80;55.60;;;;;;7384012;19;4265;-63
2023/10/24 07:37:25;;;;;;;;;;;22.60;56.10;;;;;;7394636;19;3861;-63
2023/10/24 07:39:51;;;;;;;;;;;22.40;57.40;;;;;;7395551;19;4169;-64
2023/10/24 07:42:16;;;;;;;;;;;22.20;57.00;;;;;;7387652;19;3502;-62
2023/10/24 07:44:42;;;;;;;;;;;22.10;57.60;;;;;;7392992;19;4339;-64
2023/10/24 07:47:07;;;;;;;;;;;21.90;57.90;;;;;;7388638;19;4214;-63
2023/10/24 07:49:33;;;;;;;;;;;21.90;58.20;;;;;;7390679;19;1857;-63
2023/10/24 07:51:59;;;;;;;;;;;21.80;58.40;;;;;;7394100;19;1709;-65
2023/10/24 07:54:24;;;;;;;;;;;21.60;58.70;;;;;;7394488;19;3428;-64
2023/10/24 07:56:50;;;;;;;;;;;21.50;59.20;;;;;;7393699;19;3789;-64
2023/10/24 07:59:15;;;;;;;;;;;21.40;59.60;;;;;;7390115;19;2116;-62
2023/10/24 08:01:40;;;;;;;;;;;21.30;59.70;;;;;;7391782;19;3341;-63
2023/10/24 08:04:06;;;;;;;;;;;21.30;59.90;;;;;;7388333;19;3305;-63
2023/10/24 08:06:31;;;;;;;;;;;21.20;60.10;;;;;;7393432;19;1720;-63
2023/10/24 08:08:57;;;;;;;;;;;21.20;60.30;;;;;;7394855;19;1853;-64
2023/10/24 08:11:23;;;;;;;;;;;21.20;60.40;;;;;;7391366;19;5346;-64
2023/10/24 08:13:48;;;;;;;;;;;21.10;60.70;;;;;;7389291;19;4012;-62
2023/10/24 08:16:13;;;;;;;;;;;21.10;60.70;;;;;;7387481;19;6397;-65
2023/10/24 08:18:40;;;;;;;;;;;21.10;60.80;;;;;;7390549;19;4322;-62
2023/10/24 08:21:07;;;;;;;;;;;21.20;61.00;;;;;;7395034;19;1724;-63
2023/10/24 08:23:32;;;;;;;;;;;21.70;60.10;;;;;;7393118;19;1501;-63
2023/10/24 08:25:58;;;;;;;;;;;22.20;59.00;;;;;;7394030;19;1752;-64
2023/10/24 08:28:23;;;;;;;;;;;22.50;58.00;;;;;;7392357;19;1856;-62
2023/10/24 08:30:49;;;;;;;;;;;22.80;57.30;;;;;;7392396;19;1693;-62
2023/10/24 08:33:15;;;;;;;;;;;22.90;57.00;;;;;;7393906;19;4672;-62
2023/10/24 08:35:40;;;;;;;;;;;23.00;56.60;;;;;;7395888;19;6022;-64
2023/10/24 08:38:06;;;;;;;;;;;23.10;56.40;;;;;;7390603;19;3886;-63
2023/10/24 08:40:31;;;;;;;;;;;23.00;56.50;;;;;;7390610;19;5834;-63
2023/10/24 08:42:57;;;;;;;;;;;22.90;56.80;;;;;;7393264;19;4492;-63
2023/10/24 08:45:23;;;;;;;;;;;22.70;57.20;;;;;;7392463;19;4157;-63
2023/10/24 08:47:48;;;;;;;;;;;22.60;57.20;;;;;;7394941;19;4633;-62
2023/10/24 08:50:14;;;;;;;;;;;22.40;57.80;;;;;;7392346;19;5009;-65
2023/10/24 08:52:39;;;;;;;;;;;22.30;58.10;;;;;;7397083;19;4210;-64
2023/10/24 08:55:05;;;;;;;;;;;22.20;58.40;;;;;;7398117;19;3105;-64
2023/10/24 08:57:34;;;;;;;;;;;22.10;58.80;;;;;;7395873;19;4433;-63
2023/10/24 08:59:59;;;;;;;;;;;21.90;59.10;;;;;;7397143;19;4252;-63
2023/10/24 09:02:25;;;;;;;;;;;21.80;59.20;;;;;;7393663;19;4567;-64
2023/10/24 09:04:50;;;;;;;;;;;21.70;59.50;;;;;;7395170;19;4341;-63
2023/10/24 09:07:16;;;;;;;;;;;21.80;59.70;;;;;;7394048;19;3753;-62
2023/10/24 09:09:41;;;;;;;;;;;21.80;59.70;;;;;;7399426;19;2328;-63
2023/10/24 09:12:08;;;;;;;;;;;21.90;59.70;;;;;;7395907;19;4330;-64
2023/10/24 09:14:33;;;;;;;;;;;22.00;59.50;;;;;;7399261;19;4872;-63
2023/10/24 09:17:05;;;;;;;;;;;22.20;58.90;;;;;;7400829;19;1639;-63
2023/10/24 09:19:32;;;;;;;;;;;22.50;58.50;;;;;;7401873;19;1976;-63
2023/10/24 09:21:57;;;;;;;;;;;22.70;58.00;;;;;;7396820;19;4720;-64
2023/10/24 09:24:23;;;;;;;;;;;22.80;57.60;;;;;;7395006;19;4388;-64
2023/10/24 09:26:51;;;;;;;;;;;22.80;57.30;;;;;;7395869;19;4231;-62
2023/10/24 09:29:20;;;;;;;;;;;22.70;57.30;;;;;;7396882;19;3992;-63
2023/10/24 09:31:49;;;;;;;;;;;22.60;57.60;;;;;;7393265;19;4996;-65
2023/10/24 09:34:14;;;;;;;;;;;22.50;58.00;;;;;;7397747;19;3551;-64
2023/10/24 09:36:40;;;;;;;;;;;22.40;58.30;;;;;;7397014;19;3484;-62
2023/10/24 09:39:05;;;;;;;;;;;22.30;58.70;;;;;;7394216;19;4539;-64
2023/10/24 09:41:31;;;;;;;;;;;22.10;58.80;;;;;;7394726;19;3542;-63
2023/10/24 09:43:57;;;;;;;;;;;22.00;59.20;;;;;;7398425;19;2079;-63
2023/10/24 09:46:23;;;;;;;;;;;21.90;59.50;;;;;;7395485;19;4551;-64
2023/10/24 09:48:49;;;;;;;;;;;21.90;59.70;;;;;;7389605;19;6304;-62
2023/10/24 09:51:16;;;;;;;;;;;21.90;59.70;;;;;;7395553;19;3761;-61
2023/10/24 09:53:41;;;;;;;;;;;22.00;59.70;;;;;;7394483;19;5034;-63
2023/10/24 09:56:07;;;;;;;;;;;22.20;59.30;;;;;;7390728;19;4589;-63
2023/10/24 09:58:35;;;;;;;;;;;22.40;59.00;;;;;;7395901;19;1965;-63
2023/10/24 10:01:00;;;;;;;;;;;22.50;58.60;;;;;;7394234;19;3556;-63
2023/10/24 10:03:26;;;;;;;;;;;22.70;58.30;;;;;;7387689;19;5102;-61
2023/10/24 10:05:51;;;;;;;;;;;22.70;58.10;;;;;;7391528;19;4172;-62
2023/10/24 10:08:17;;;;;;;;;;;22.70;58.30;;;;;;7393520;19;5230;-63
2023/10/24 10:10:42;;;;;;;;;;;22.60;58.30;;;;;;7391212;19;2283;-63
2023/10/24 10:13:08;;;;;;;;;;;22.60;58.60;;;;;;7390369;19;4607;-62
2023/10/24 10:15:47;;;;;;;;;;;22.50;58.60;;;;;;7395668;19;1893;-63
2023/10/24 10:18:16;;;;;;;;;;;22.40;58.70;;;;;;7389851;19;3807;-63
2023/10/24 10:20:45;;;;;;;;;;;22.30;58.90;;;;;;7394131;19;3661;-63
2023/10/24 10:23:25;;;;;;;;;;;22.20;59.20;;;;;;7388964;19;3852;-65
2023/10/24 10:25:53;;;;;;;;;;;22.20;59.30;;;;;;7394057;19;2811;-65
2023/10/24 10:28:42;;;;;;;;;;;22.20;59.40;;;;;;7393119;19;2557;-62
2023/10/24 10:31:26;;;;;;;;;;;22.20;59.70;;;;;;7393748;19;4082;-63
2023/10/24 10:33:54;;;;;;;;;;;22.20;59.80;;;;;;7393890;19;3663;-63
2023/10/24 10:36:19;;;;;;;;;;;22.20;59.80;;;;;;7390422;19;4355;-64
2023/10/24 10:38:46;;;;;;;;;;;22.40;59.40;;;;;;7395138;19;4236;-66
2023/10/24 10:41:25;;;;;;;;;;;22.50;59.10;;;;;;7393860;19;4768;-63
2023/10/24 10:43:54;;;;;;;;;;;22.60;58.80;;;;;;7393533;19;3624;-65
2023/10/24 10:46:25;;;;;;;;;;;22.70;58.60;;;;;;7394526;19;1827;-66
2023/10/24 10:48:51;;;;;;;;;;;22.80;58.40;;;;;;7398047;19;3352;-63
2023/10/24 10:51:20;;;;;;;;;;;22.90;58.00;;;;;;7392830;19;3536;-63
2023/10/24 10:53:49;;;;;;;;;;;22.90;58.00;;;;;;7394168;19;4375;-63
2023/10/24 10:56:25;;;;;;;;;;;22.90;58.20;;;;;;7390016;19;2487;-63
2023/10/24 10:59:02;;;;;;;;;;;22.80;58.30;;;;;;7396435;19;1978;-63
2023/10/24 11:01:28;;;;;;;;;;;22.70;58.60;;;;;;7397636;19;1980;-64
2023/10/24 11:03:55;;;;;;;;;;;22.60;58.90;;;;;;7393935;19;3874;-63
2023/10/24 11:06:21;;;;;;;;;;;22.60;59.00;;;;;;7392060;19;3511;-63
2023/10/24 11:08:48;;;;;;;;;;;22.50;59.00;;;;;;7393627;19;2255;-64
2023/10/24 11:11:17;;;;;;;;;;;22.50;59.10;;;;;;7391049;19;4322;-62
2023/10/24 11:13:42;;;;;;;;;;;22.50;59.20;;;;;;7395180;19;4584;-62
2023/10/24 11:16:09;;;;;;;;;;;22.50;59.20;;;;;;7392000;19;2747;-63
2023/10/24 11:18:35;;;;;;;;;;;22.50;59.40;;;;;;7395466;19;1678;-65
2023/10/24 11:21:00;;;;;;;;;;;22.50;59.40;;;;;;7388264;19;3774;-64
2023/10/24 11:23:29;;;;;;;;;;;22.50;59.30;;;;;;7386149;19;4905;-63
2023/10/24 11:25:57;;;;;;;;;;;22.60;59.30;;;;;;7390747;19;3649;-63
2023/10/24 11:28:22;;;;;;;;;;;22.60;59.20;;;;;;7386384;19;3726;-63
2023/10/24 11:30:48;;;;;;;;;;;22.70;59.00;;;;;;7380116;19;4252;-64
2023/10/24 11:33:13;;;;;;;;;;;22.80;58.70;;;;;;7390792;19;4292;-64
2023/10/24 11:35:39;;;;;;;;;;;22.80;58.70;;;;;;7389738;19;3985;-63
2023/10/24 11:38:04;;;;;;;;;;;22.90;58.60;;;;;;7391548;19;1817;-62
2023/10/24 11:40:30;;;;;;;;;;;23.00;58.50;;;;;;7387585;19;5012;-64
2023/10/24 11:43:05;;;;;;;;;;;23.00;58.60;;;;;;7387944;19;3489;-64
2023/10/24 11:45:31;;;;;;;;;;;23.00;58.70;;;;;;7381912;19;5165;-65
2023/10/24 11:47:56;;;;;;;;;;;22.90;58.80;;;;;;7382494;19;4397;-65
2023/10/24 11:50:42;;;;;;;;;;;22.80;58.90;;;;;;7378258;19;3788;-65
2023/10/24 11:53:08;;;;;;;;;;;22.70;59.10;;;;;;7384295;19;4765;-64
2023/10/24 11:55:33;;;;;;;;;;;22.60;59.40;;;;;;7393068;19;1819;-64
2023/10/24 11:57:59;;;;;;;;;;;22.60;59.40;;;;;;7392279;19;3397;-62
2023/10/24 12:00:30;;;;;;;;;;;22.60;59.40;;;;;;7389823;19;4385;-64
2023/10/24 12:03:00;;;;;;;;;;;22.50;59.40;;;;;;7382679;19;3757;-64
2023/10/24 12:05:26;;;;;;;;;;;22.60;59.70;;;;;;7387015;19;4404;-65
2023/10/24 12:07:52;;;;;;;;;;;22.60;59.60;;;;;;7397053;19;4921;-66
2023/10/24 12:10:17;;;;;;;;;;;22.60;59.50;;;;;;7390726;19;3351;-64
2023/10/24 12:12:45;;;;;;;;;;;22.70;59.30;;;;;;7399979;19;3284;-63
2023/10/24 12:15:10;;;;;;;;;;;22.70;59.20;;;;;;7398390;19;1723;-63
2023/10/24 12:17:36;;;;;;;;;;;22.80;59.20;;;;;;7394210;19;3287;-64
2023/10/24 12:20:01;;;;;;;;;;;22.80;59.00;;;;;;7396317;19;4300;-63
2023/10/24 12:22:26;;;;;;;;;;;22.80;59.00;;;;;;7391340;19;3502;-64
2023/10/24 12:24:52;;;;;;;;;;;22.80;58.90;;;;;;7392241;19;4967;-64
2023/10/24 12:27:17;;;;;;;;;;;22.80;59.10;;;;;;7395572;19;3467;-64
2023/10/24 12:29:43;;;;;;;;;;;22.80;59.10;;;;;;7389108;19;3900;-64
2023/10/24 12:32:08;;;;;;;;;;;22.80;59.30;;;;;;7392174;19;3734;-62
2023/10/24 12:34:33;;;;;;;;;;;22.80;59.40;;;;;;7399439;19;3826;-63
2023/10/24 12:37:02;;;;;;;;;;;22.70;59.40;;;;;;7397207;19;1900;-65
2023/10/24 12:39:28;;;;;;;;;;;22.70;59.60;;;;;;7390947;19;4360;-64
2023/10/24 12:41:53;;;;;;;;;;;22.60;59.70;;;;;;7396285;19;2758;-63
2023/10/24 12:44:18;;;;;;;;;;;22.60;59.70;;;;;;7397244;19;3199;-63
2023/10/24 12:46:44;;;;;;;;;;;22.60;59.90;;;;;;7393152;19;3890;-64
2023/10/24 12:49:09;;;;;;;;;;;22.60;59.90;;;;;;7396335;19;3860;-63
2023/10/24 12:51:35;;;;;;;;;;;22.60;59.90;;;;;;7388960;19;3511;-63
2023/10/24 12:54:00;;;;;;;;;;;22.60;59.90;;;;;;7392368;19;3959;-64
2023/10/24 12:56:26;;;;;;;;;;;22.60;60.00;;;;;;7394607;19;4220;-64
2023/10/24 12:58:51;;;;;;;;;;;22.60;59.90;;;;;;7391614;19;5446;-64
2023/10/24 13:01:16;;;;;;;;;;;22.70;59.90;;;;;;7389712;19;3473;-64
2023/10/24 13:03:42;;;;;;;;;;;22.70;59.80;;;;;;7398394;19;4520;-64
2023/10/24 13:06:07;;;;;;;;;;;22.80;59.80;;;;;;7396960;19;1665;-64
2023/10/24 13:08:33;;;;;;;;;;;22.80;59.60;;;;;;7394390;19;3729;-63
2023/10/24 13:10:58;;;;;;;;;;;22.80;59.30;;;;;;7395266;19;3474;-65
2023/10/24 13:13:24;;;;;;;;;;;22.80;59.60;;;;;;7395436;19;4749;-64
2023/10/24 13:15:49;;;;;;;;;;;22.80;59.50;;;;;;7394473;19;5001;-65
2023/10/24 13:18:15;;;;;;;;;;;22.80;59.70;;;;;;7390079;19;3525;-63
2023/10/24 13:20:40;;;;;;;;;;;22.70;59.80;;;;;;7395436;19;2384;-62
2023/10/24 13:23:06;;;;;;;;;;;22.60;60.10;;;;;;7398509;19;2147;-66
2023/10/24 13:25:32;;;;;;;;;;;22.50;60.30;;;;;;7395145;19;3242;-63
2023/10/24 13:27:57;;;;;;;;;;;22.50;60.20;;;;;;7395463;19;3536;-63
2023/10/24 13:30:22;;;;;;;;;;;22.50;60.40;;;;;;7390669;19;3069;-63
2023/10/24 13:32:48;;;;;;;;;;;22.50;60.60;;;;;;7390470;19;3639;-63
2023/10/24 13:35:13;;;;;;;;;;;22.50;60.70;;;;;;7397928;19;1569;-65
2023/10/24 13:37:39;;;;;;;;;;;22.50;60.60;;;;;;7394759;19;2099;-64
2023/10/24 13:40:04;;;;;;;;;;;22.50;60.60;;;;;;7392140;19;3919;-64
2023/10/24 13:42:30;;;;;;;;;;;22.60;60.50;;;;;;7388721;19;4673;-66
2023/10/24 13:44:55;;;;;;;;;;;22.60;60.40;;;;;;7389282;19;4703;-65
2023/10/24 13:47:21;;;;;;;;;;;22.70;60.40;;;;;;7394020;19;5200;-62
2023/10/24 13:49:46;;;;;;;;;;;22.60;60.20;;;;;;7384750;19;4285;-64
2023/10/24 13:52:13;;;;;;;;;;;22.70;60.20;;;;;;7387073;19;3834;-65
2023/10/24 13:54:39;;;;;;;;;;;22.70;60.20;;;;;;7391109;19;5475;-64
2023/10/24 13:57:04;;;;;;;;;;;22.70;59.80;;;;;;7396544;19;3507;-64
2023/10/24 13:59:30;;;;;;;;;;;22.70;60.10;;;;;;7389034;19;6803;-64
2023/10/24 14:01:55;;;;;;;;;;;22.70;60.20;;;;;;7392714;19;5145;-61
2023/10/24 14:04:21;;;;;;;;;;;22.70;60.30;;;;;;7389846;19;4355;-63
2023/10/24 14:06:46;;;;;;;;;;;22.60;60.30;;;;;;7389631;19;4224;-63
2023/10/24 14:09:13;;;;;;;;;;;22.60;60.40;;;;;;7391229;19;3475;-63
2023/10/24 14:11:39;;;;;;;;;;;22.60;60.40;;;;;;7393188;19;3928;-62
2023/10/24 14:14:04;;;;;;;;;;;22.60;60.60;;;;;;7394778;19;6477;-63
2023/10/24 14:16:30;;;;;;;;;;;22.60;60.50;;;;;;7392425;19;3353;-64
2023/10/24 14:18:56;;;;;;;;;;;22.60;60.70;;;;;;7393076;19;3569;-64
2023/10/24 14:21:21;;;;;;;;;;;22.50;61.50;;;;;;7389892;19;5855;-62
2023/10/24 14:23:46;;;;;;;;;;;22.50;61.00;;;;;;7397152;19;3129;-63